sensor_id;sensor_type;location;lat;lon;timestamp;P1;durP1;ratioP1;P2;durP2;ratioP2
16254;SDS011;8235;52.198;9.904;2023-04-28T00:01:35;3.30;;;2.60;;
16254;SDS011;8235;52.198;9.904;2023-04-28T00:04:01;3.30;;;2.73;;
16254;SDS011;8235;52.198;9.904;2023-04-28T00:06:28;4.63;;;2.97;;
16254;SDS011;8235;52.198;9.904;2023-04-28T00:08:54;4.27;;;3.27;;
16254;SDS011;8235;52.198;9.904;2023-04-28T00:11:21;4.53;;;2.77;;
16254;SDS011;8235;52.198;9.904;2023-04-28T00:13:49;6.57;;;3.10;;
16254;SDS011;8235;52.198;9.904;2023-04-28T00:16:15;4.07;;;2.80;;
16254;SDS011;8235;52.198;9.904;2023-04-28T00:18:42;6.93;;;3.03;;
16254;SDS011;8235;52.198;9.904;2023-04-28T00:21:08;5.17;;;3.00;;
16254;SDS011;8235;52.198;9.904;2023-04-28T00:23:35;5.80;;;2.80;;
16254;SDS011;8235;52.198;9.904;2023-04-28T00:26:01;5.40;;;3.07;;
16254;SDS011;8235;52.198;9.904;2023-04-28T00:28:28;6.23;;;2.90;;
16254;SDS011;8235;52.198;9.904;2023-04-28T00:30:55;4.30;;;2.93;;
16254;SDS011;8235;52.198;9.904;2023-04-28T00:33:22;5.27;;;3.03;;
16254;SDS011;8235;52.198;9.904;2023-04-28T00:35:48;5.00;;;3.00;;
16254;SDS011;8235;52.198;9.904;2023-04-28T00:38:15;5.00;;;3.10;;
16254;SDS011;8235;52.198;9.904;2023-04-28T00:40:41;5.73;;;2.93;;
16254;SDS011;8235;52.198;9.904;2023-04-28T00:43:07;4.20;;;2.90;;
16254;SDS011;8235;52.198;9.904;2023-04-28T00:45:34;4.77;;;3.53;;
16254;SDS011;8235;52.198;9.904;2023-04-28T00:48:02;4.00;;;2.60;;
16254;SDS011;8235;52.198;9.904;2023-04-28T00:50:28;4.60;;;3.17;;
16254;SDS011;8235;52.198;9.904;2023-04-28T00:52:55;3.63;;;2.80;;
16254;SDS011;8235;52.198;9.904;2023-04-28T00:55:21;5.77;;;3.27;;
16254;SDS011;8235;52.198;9.904;2023-04-28T00:57:51;4.20;;;3.00;;
16254;SDS011;8235;52.198;9.904;2023-04-28T01:00:20;4.33;;;3.40;;
16254;SDS011;8235;52.198;9.904;2023-04-28T01:02:47;6.33;;;3.00;;
16254;SDS011;8235;52.198;9.904;2023-04-28T01:05:16;3.37;;;2.50;;
16254;SDS011;8235;52.198;9.904;2023-04-28T01:07:43;5.43;;;3.10;;
16254;SDS011;8235;52.198;9.904;2023-04-28T01:10:10;4.87;;;3.00;;
16254;SDS011;8235;52.198;9.904;2023-04-28T01:12:36;4.90;;;3.20;;
16254;SDS011;8235;52.198;9.904;2023-04-28T01:15:03;6.40;;;2.80;;
16254;SDS011;8235;52.198;9.904;2023-04-28T01:17:30;5.00;;;3.23;;
16254;SDS011;8235;52.198;9.904;2023-04-28T01:19:56;4.40;;;2.97;;
16254;SDS011;8235;52.198;9.904;2023-04-28T01:22:24;6.47;;;3.27;;
16254;SDS011;8235;52.198;9.904;2023-04-28T01:24:52;4.90;;;3.20;;
16254;SDS011;8235;52.198;9.904;2023-04-28T01:27:18;4.40;;;3.13;;
16254;SDS011;8235;52.198;9.904;2023-04-28T01:29:45;5.47;;;2.97;;
16254;SDS011;8235;52.198;9.904;2023-04-28T01:32:11;4.50;;;2.93;;
16254;SDS011;8235;52.198;9.904;2023-04-28T01:34:38;4.30;;;3.30;;
16254;SDS011;8235;52.198;9.904;2023-04-28T01:37:04;4.27;;;3.13;;
16254;SDS011;8235;52.198;9.904;2023-04-28T01:39:30;7.80;;;3.70;;
16254;SDS011;8235;52.198;9.904;2023-04-28T01:41:58;5.47;;;3.63;;
16254;SDS011;8235;52.198;9.904;2023-04-28T01:44:26;5.67;;;3.20;;
16254;SDS011;8235;52.198;9.904;2023-04-28T01:46:54;4.87;;;3.30;;
16254;SDS011;8235;52.198;9.904;2023-04-28T01:49:20;5.33;;;3.33;;
16254;SDS011;8235;52.198;9.904;2023-04-28T01:51:48;5.50;;;3.63;;
16254;SDS011;8235;52.198;9.904;2023-04-28T01:54:14;5.63;;;3.57;;
16254;SDS011;8235;52.198;9.904;2023-04-28T01:56:41;3.57;;;3.13;;
16254;SDS011;8235;52.198;9.904;2023-04-28T01:59:11;8.20;;;3.50;;
16254;SDS011;8235;52.198;9.904;2023-04-28T02:01:37;3.40;;;3.10;;
16254;SDS011;8235;52.198;9.904;2023-04-28T02:04:04;4.47;;;3.60;;
16254;SDS011;8235;52.198;9.904;2023-04-28T02:06:30;5.23;;;4.00;;
16254;SDS011;8235;52.198;9.904;2023-04-28T02:08:57;4.80;;;3.07;;
16254;SDS011;8235;52.198;9.904;2023-04-28T02:11:23;5.50;;;3.83;;
16254;SDS011;8235;52.198;9.904;2023-04-28T02:13:49;8.77;;;3.90;;
16254;SDS011;8235;52.198;9.904;2023-04-28T02:16:17;4.97;;;3.27;;
16254;SDS011;8235;52.198;9.904;2023-04-28T02:18:44;6.87;;;4.03;;
16254;SDS011;8235;52.198;9.904;2023-04-28T02:21:10;5.50;;;3.70;;
16254;SDS011;8235;52.198;9.904;2023-04-28T02:23:37;6.33;;;4.10;;
16254;SDS011;8235;52.198;9.904;2023-04-28T02:26:04;5.17;;;3.70;;
16254;SDS011;8235;52.198;9.904;2023-04-28T02:28:31;7.13;;;4.03;;
16254;SDS011;8235;52.198;9.904;2023-04-28T02:31:04;6.10;;;3.67;;
16254;SDS011;8235;52.198;9.904;2023-04-28T02:33:33;4.27;;;3.80;;
16254;SDS011;8235;52.198;9.904;2023-04-28T02:35:59;7.63;;;4.03;;
16254;SDS011;8235;52.198;9.904;2023-04-28T02:38:26;7.17;;;3.53;;
16254;SDS011;8235;52.198;9.904;2023-04-28T02:40:56;4.63;;;3.80;;
16254;SDS011;8235;52.198;9.904;2023-04-28T02:43:23;5.00;;;3.70;;
16254;SDS011;8235;52.198;9.904;2023-04-28T02:45:50;10.27;;;4.23;;
16254;SDS011;8235;52.198;9.904;2023-04-28T02:48:16;8.47;;;4.10;;
16254;SDS011;8235;52.198;9.904;2023-04-28T02:50:44;5.17;;;4.07;;
16254;SDS011;8235;52.198;9.904;2023-04-28T02:53:11;6.47;;;4.00;;
16254;SDS011;8235;52.198;9.904;2023-04-28T02:55:37;5.30;;;3.83;;
16254;SDS011;8235;52.198;9.904;2023-04-28T02:58:04;6.50;;;4.20;;
16254;SDS011;8235;52.198;9.904;2023-04-28T03:00:30;5.53;;;3.80;;
16254;SDS011;8235;52.198;9.904;2023-04-28T03:02:57;5.47;;;3.83;;
16254;SDS011;8235;52.198;9.904;2023-04-28T03:05:23;7.13;;;4.07;;
16254;SDS011;8235;52.198;9.904;2023-04-28T03:07:51;10.10;;;4.10;;
16254;SDS011;8235;52.198;9.904;2023-04-28T03:10:18;5.70;;;4.10;;
16254;SDS011;8235;52.198;9.904;2023-04-28T03:12:44;5.70;;;3.67;;
16254;SDS011;8235;52.198;9.904;2023-04-28T03:15:11;6.57;;;3.90;;
16254;SDS011;8235;52.198;9.904;2023-04-28T03:17:37;4.30;;;3.90;;
16254;SDS011;8235;52.198;9.904;2023-04-28T03:20:06;5.57;;;3.90;;
16254;SDS011;8235;52.198;9.904;2023-04-28T03:22:33;6.30;;;4.43;;
16254;SDS011;8235;52.198;9.904;2023-04-28T03:25:02;4.73;;;3.83;;
16254;SDS011;8235;52.198;9.904;2023-04-28T03:27:29;6.87;;;4.00;;
16254;SDS011;8235;52.198;9.904;2023-04-28T03:29:55;4.87;;;3.70;;
16254;SDS011;8235;52.198;9.904;2023-04-28T03:32:22;5.30;;;4.13;;
16254;SDS011;8235;52.198;9.904;2023-04-28T03:34:48;8.97;;;4.27;;
16254;SDS011;8235;52.198;9.904;2023-04-28T03:37:15;5.30;;;3.73;;
16254;SDS011;8235;52.198;9.904;2023-04-28T03:39:41;4.27;;;3.87;;
16254;SDS011;8235;52.198;9.904;2023-04-28T03:42:09;4.83;;;3.77;;
16254;SDS011;8235;52.198;9.904;2023-04-28T03:44:36;6.77;;;4.10;;
16254;SDS011;8235;52.198;9.904;2023-04-28T03:47:02;10.27;;;4.53;;
16254;SDS011;8235;52.198;9.904;2023-04-28T03:49:29;5.03;;;3.60;;
16254;SDS011;8235;52.198;9.904;2023-04-28T03:51:56;5.00;;;3.50;;
16254;SDS011;8235;52.198;9.904;2023-04-28T03:54:22;6.47;;;4.00;;
16254;SDS011;8235;52.198;9.904;2023-04-28T03:56:49;4.93;;;3.73;;
16254;SDS011;8235;52.198;9.904;2023-04-28T03:59:17;5.07;;;4.30;;
16254;SDS011;8235;52.198;9.904;2023-04-28T04:01:43;7.90;;;3.97;;
16254;SDS011;8235;52.198;9.904;2023-04-28T04:04:10;6.07;;;3.80;;
16254;SDS011;8235;52.198;9.904;2023-04-28T04:06:36;5.77;;;4.43;;
16254;SDS011;8235;52.198;9.904;2023-04-28T04:09:03;4.83;;;3.47;;
16254;SDS011;8235;52.198;9.904;2023-04-28T04:11:30;4.57;;;4.17;;
16254;SDS011;8235;52.198;9.904;2023-04-28T04:13:56;6.80;;;3.97;;
16254;SDS011;8235;52.198;9.904;2023-04-28T04:16:24;5.73;;;3.87;;
16254;SDS011;8235;52.198;9.904;2023-04-28T04:18:50;6.50;;;4.43;;
16254;SDS011;8235;52.198;9.904;2023-04-28T04:21:17;5.93;;;4.07;;
16254;SDS011;8235;52.198;9.904;2023-04-28T04:23:43;5.50;;;4.00;;
16254;SDS011;8235;52.198;9.904;2023-04-28T04:26:10;7.13;;;4.40;;
16254;SDS011;8235;52.198;9.904;2023-04-28T04:28:36;6.33;;;4.10;;
16254;SDS011;8235;52.198;9.904;2023-04-28T04:31:03;6.30;;;4.90;;
16254;SDS011;8235;52.198;9.904;2023-04-28T04:33:30;5.20;;;4.13;;
16254;SDS011;8235;52.198;9.904;2023-04-28T04:35:58;8.10;;;4.40;;
16254;SDS011;8235;52.198;9.904;2023-04-28T04:38:25;5.70;;;4.07;;
16254;SDS011;8235;52.198;9.904;2023-04-28T04:40:51;6.50;;;4.30;;
16254;SDS011;8235;52.198;9.904;2023-04-28T04:43:18;5.33;;;3.90;;
16254;SDS011;8235;52.198;9.904;2023-04-28T04:45:45;7.10;;;4.20;;
16254;SDS011;8235;52.198;9.904;2023-04-28T04:48:11;5.83;;;4.53;;
16254;SDS011;8235;52.198;9.904;2023-04-28T04:50:39;7.60;;;4.70;;
16254;SDS011;8235;52.198;9.904;2023-04-28T04:53:06;11.97;;;4.50;;
16254;SDS011;8235;52.198;9.904;2023-04-28T04:55:33;5.90;;;4.20;;
16254;SDS011;8235;52.198;9.904;2023-04-28T04:57:59;8.37;;;4.93;;
16254;SDS011;8235;52.198;9.904;2023-04-28T05:00:26;10.37;;;4.53;;
16254;SDS011;8235;52.198;9.904;2023-04-28T05:02:53;6.77;;;4.57;;
16254;SDS011;8235;52.198;9.904;2023-04-28T05:05:19;7.03;;;5.00;;
16254;SDS011;8235;52.198;9.904;2023-04-28T05:07:47;7.73;;;4.53;;
16254;SDS011;8235;52.198;9.904;2023-04-28T05:10:14;7.67;;;4.87;;
16254;SDS011;8235;52.198;9.904;2023-04-28T05:12:40;5.83;;;4.50;;
16254;SDS011;8235;52.198;9.904;2023-04-28T05:15:08;9.47;;;5.27;;
16254;SDS011;8235;52.198;9.904;2023-04-28T05:17:35;9.23;;;4.73;;
16254;SDS011;8235;52.198;9.904;2023-04-28T05:20:02;7.50;;;4.93;;
16254;SDS011;8235;52.198;9.904;2023-04-28T05:22:29;7.60;;;4.70;;
16254;SDS011;8235;52.198;9.904;2023-04-28T05:24:57;8.13;;;5.10;;
16254;SDS011;8235;52.198;9.904;2023-04-28T05:27:23;11.57;;;4.70;;
16254;SDS011;8235;52.198;9.904;2023-04-28T05:29:50;6.27;;;4.93;;
16254;SDS011;8235;52.198;9.904;2023-04-28T05:32:16;7.60;;;5.03;;
16254;SDS011;8235;52.198;9.904;2023-04-28T05:34:43;8.20;;;5.27;;
16254;SDS011;8235;52.198;9.904;2023-04-28T05:37:09;6.67;;;5.47;;
16254;SDS011;8235;52.198;9.904;2023-04-28T05:39:36;7.83;;;5.37;;
16254;SDS011;8235;52.198;9.904;2023-04-28T05:42:04;5.47;;;4.50;;
16254;SDS011;8235;52.198;9.904;2023-04-28T05:44:30;7.60;;;5.27;;
16254;SDS011;8235;52.198;9.904;2023-04-28T05:46:57;7.43;;;5.40;;
16254;SDS011;8235;52.198;9.904;2023-04-28T05:49:23;8.53;;;5.70;;
16254;SDS011;8235;52.198;9.904;2023-04-28T05:51:50;7.50;;;4.87;;
16254;SDS011;8235;52.198;9.904;2023-04-28T05:54:16;8.67;;;5.57;;
16254;SDS011;8235;52.198;9.904;2023-04-28T05:56:43;10.10;;;5.53;;
16254;SDS011;8235;52.198;9.904;2023-04-28T05:59:11;11.57;;;6.00;;
16254;SDS011;8235;52.198;9.904;2023-04-28T06:01:37;9.53;;;5.13;;
16254;SDS011;8235;52.198;9.904;2023-04-28T06:04:04;9.10;;;5.00;;
16254;SDS011;8235;52.198;9.904;2023-04-28T06:06:30;9.43;;;4.87;;
16254;SDS011;8235;52.198;9.904;2023-04-28T06:08:58;10.10;;;5.27;;
16254;SDS011;8235;52.198;9.904;2023-04-28T06:11:24;8.47;;;5.03;;
16254;SDS011;8235;52.198;9.904;2023-04-28T06:13:51;9.80;;;5.10;;
16254;SDS011;8235;52.198;9.904;2023-04-28T06:16:19;7.47;;;5.57;;
16254;SDS011;8235;52.198;9.904;2023-04-28T06:18:47;11.67;;;6.13;;
16254;SDS011;8235;52.198;9.904;2023-04-28T06:21:14;9.40;;;5.00;;
16254;SDS011;8235;52.198;9.904;2023-04-28T06:23:41;9.80;;;5.43;;
16254;SDS011;8235;52.198;9.904;2023-04-28T06:26:08;11.87;;;5.60;;
16254;SDS011;8235;52.198;9.904;2023-04-28T06:28:34;8.60;;;5.63;;
16254;SDS011;8235;52.198;9.904;2023-04-28T06:31:01;8.03;;;5.60;;
16254;SDS011;8235;52.198;9.904;2023-04-28T06:33:29;7.03;;;5.63;;
16254;SDS011;8235;52.198;9.904;2023-04-28T06:35:55;7.83;;;6.00;;
16254;SDS011;8235;52.198;9.904;2023-04-28T06:38:22;7.33;;;5.40;;
16254;SDS011;8235;52.198;9.904;2023-04-28T06:40:48;8.20;;;5.60;;
16254;SDS011;8235;52.198;9.904;2023-04-28T06:43:15;8.27;;;5.80;;
16254;SDS011;8235;52.198;9.904;2023-04-28T06:45:42;8.10;;;5.63;;
16254;SDS011;8235;52.198;9.904;2023-04-28T06:48:08;9.53;;;5.60;;
16254;SDS011;8235;52.198;9.904;2023-04-28T06:50:36;6.73;;;5.37;;
16254;SDS011;8235;52.198;9.904;2023-04-28T06:53:03;8.53;;;5.17;;
16254;SDS011;8235;52.198;9.904;2023-04-28T06:55:30;9.60;;;5.30;;
16254;SDS011;8235;52.198;9.904;2023-04-28T06:57:56;9.77;;;5.47;;
16254;SDS011;8235;52.198;9.904;2023-04-28T07:00:23;10.23;;;6.00;;
16254;SDS011;8235;52.198;9.904;2023-04-28T07:02:50;13.23;;;6.33;;
16254;SDS011;8235;52.198;9.904;2023-04-28T07:05:16;11.40;;;6.50;;
16254;SDS011;8235;52.198;9.904;2023-04-28T07:07:44;7.00;;;5.63;;
16254;SDS011;8235;52.198;9.904;2023-04-28T07:10:10;8.93;;;5.50;;
16254;SDS011;8235;52.198;9.904;2023-04-28T07:12:37;7.90;;;5.57;;
16254;SDS011;8235;52.198;9.904;2023-04-28T07:15:04;6.47;;;5.37;;
16254;SDS011;8235;52.198;9.904;2023-04-28T07:17:31;10.10;;;6.27;;
16254;SDS011;8235;52.198;9.904;2023-04-28T07:19:58;7.70;;;6.17;;
16254;SDS011;8235;52.198;9.904;2023-04-28T07:22:24;11.83;;;5.67;;
16254;SDS011;8235;52.198;9.904;2023-04-28T07:24:52;7.57;;;5.20;;
16254;SDS011;8235;52.198;9.904;2023-04-28T07:27:18;7.80;;;5.63;;
16254;SDS011;8235;52.198;9.904;2023-04-28T07:29:45;7.90;;;6.80;;
16254;SDS011;8235;52.198;9.904;2023-04-28T07:32:11;7.30;;;5.83;;
16254;SDS011;8235;52.198;9.904;2023-04-28T07:34:38;8.23;;;5.60;;
16254;SDS011;8235;52.198;9.904;2023-04-28T07:37:05;8.90;;;6.00;;
16254;SDS011;8235;52.198;9.904;2023-04-28T07:39:32;7.40;;;5.83;;
16254;SDS011;8235;52.198;9.904;2023-04-28T07:42:00;8.70;;;6.07;;
16254;SDS011;8235;52.198;9.904;2023-04-28T07:44:27;6.90;;;6.17;;
16254;SDS011;8235;52.198;9.904;2023-04-28T07:46:54;9.10;;;6.23;;
16254;SDS011;8235;52.198;9.904;2023-04-28T07:49:21;10.73;;;6.33;;
16254;SDS011;8235;52.198;9.904;2023-04-28T07:51:47;8.13;;;6.43;;
16254;SDS011;8235;52.198;9.904;2023-04-28T07:54:16;9.37;;;6.63;;
16254;SDS011;8235;52.198;9.904;2023-04-28T07:56:42;7.40;;;6.00;;
16254;SDS011;8235;52.198;9.904;2023-04-28T07:59:10;8.67;;;6.40;;
16254;SDS011;8235;52.198;9.904;2023-04-28T08:01:37;6.83;;;5.87;;
16254;SDS011;8235;52.198;9.904;2023-04-28T08:04:03;8.63;;;5.77;;
16254;SDS011;8235;52.198;9.904;2023-04-28T08:06:29;8.30;;;6.67;;
16254;SDS011;8235;52.198;9.904;2023-04-28T08:08:57;8.47;;;6.10;;
16254;SDS011;8235;52.198;9.904;2023-04-28T08:11:23;9.40;;;6.57;;
16254;SDS011;8235;52.198;9.904;2023-04-28T08:13:50;7.97;;;6.33;;
16254;SDS011;8235;52.198;9.904;2023-04-28T08:16:18;8.17;;;6.67;;
16254;SDS011;8235;52.198;9.904;2023-04-28T08:18:46;9.87;;;6.30;;
16254;SDS011;8235;52.198;9.904;2023-04-28T08:21:12;10.60;;;6.27;;
16254;SDS011;8235;52.198;9.904;2023-04-28T08:23:39;8.53;;;6.90;;
16254;SDS011;8235;52.198;9.904;2023-04-28T08:26:05;8.90;;;6.50;;
16254;SDS011;8235;52.198;9.904;2023-04-28T08:28:32;7.80;;;6.53;;
16254;SDS011;8235;52.198;9.904;2023-04-28T08:30:59;8.57;;;6.67;;
16254;SDS011;8235;52.198;9.904;2023-04-28T08:33:27;8.00;;;6.93;;
16254;SDS011;8235;52.198;9.904;2023-04-28T08:35:54;7.83;;;6.83;;
16254;SDS011;8235;52.198;9.904;2023-04-28T08:38:20;10.33;;;6.30;;
16254;SDS011;8235;52.198;9.904;2023-04-28T08:40:49;11.43;;;6.90;;
16254;SDS011;8235;52.198;9.904;2023-04-28T08:43:15;7.80;;;6.30;;
16254;SDS011;8235;52.198;9.904;2023-04-28T08:45:44;8.37;;;6.30;;
16254;SDS011;8235;52.198;9.904;2023-04-28T08:48:13;10.83;;;6.73;;
16254;SDS011;8235;52.198;9.904;2023-04-28T08:50:47;9.37;;;7.10;;
16254;SDS011;8235;52.198;9.904;2023-04-28T08:53:17;8.33;;;7.03;;
16254;SDS011;8235;52.198;9.904;2023-04-28T08:55:49;10.73;;;7.03;;
16254;SDS011;8235;52.198;9.904;2023-04-28T08:58:19;9.13;;;6.57;;
16254;SDS011;8235;52.198;9.904;2023-04-28T09:00:47;8.40;;;6.40;;
16254;SDS011;8235;52.198;9.904;2023-04-28T09:03:13;11.60;;;6.63;;
16254;SDS011;8235;52.198;9.904;2023-04-28T09:05:40;8.63;;;7.13;;
16254;SDS011;8235;52.198;9.904;2023-04-28T09:08:08;8.23;;;6.47;;
16254;SDS011;8235;52.198;9.904;2023-04-28T09:10:36;7.20;;;6.37;;
16254;SDS011;8235;52.198;9.904;2023-04-28T09:13:03;10.80;;;6.50;;
16254;SDS011;8235;52.198;9.904;2023-04-28T09:15:30;9.13;;;7.47;;
16254;SDS011;8235;52.198;9.904;2023-04-28T09:17:58;8.53;;;6.80;;
16254;SDS011;8235;52.198;9.904;2023-04-28T09:20:26;8.43;;;6.50;;
16254;SDS011;8235;52.198;9.904;2023-04-28T09:22:55;8.90;;;6.47;;
16254;SDS011;8235;52.198;9.904;2023-04-28T09:25:23;8.43;;;6.57;;
16254;SDS011;8235;52.198;9.904;2023-04-28T09:27:52;8.87;;;7.63;;
16254;SDS011;8235;52.198;9.904;2023-04-28T09:30:18;9.80;;;6.90;;
16254;SDS011;8235;52.198;9.904;2023-04-28T09:33:04;10.67;;;7.67;;
16254;SDS011;8235;52.198;9.904;2023-04-28T09:35:38;12.07;;;6.90;;
16254;SDS011;8235;52.198;9.904;2023-04-28T09:38:05;7.80;;;6.63;;
16254;SDS011;8235;52.198;9.904;2023-04-28T09:40:33;8.17;;;6.37;;
16254;SDS011;8235;52.198;9.904;2023-04-28T09:43:21;9.03;;;7.17;;
16254;SDS011;8235;52.198;9.904;2023-04-28T09:45:49;8.67;;;6.47;;
16254;SDS011;8235;52.198;9.904;2023-04-28T09:48:15;7.87;;;6.07;;
16254;SDS011;8235;52.198;9.904;2023-04-28T09:50:43;7.70;;;6.83;;
16254;SDS011;8235;52.198;9.904;2023-04-28T09:53:10;9.53;;;6.63;;
16254;SDS011;8235;52.198;9.904;2023-04-28T09:55:39;8.83;;;6.80;;
16254;SDS011;8235;52.198;9.904;2023-04-28T09:58:10;8.47;;;6.17;;
16254;SDS011;8235;52.198;9.904;2023-04-28T10:00:39;8.37;;;6.73;;
16254;SDS011;8235;52.198;9.904;2023-04-28T10:03:06;7.90;;;6.47;;
16254;SDS011;8235;52.198;9.904;2023-04-28T10:05:35;10.97;;;6.03;;
16254;SDS011;8235;52.198;9.904;2023-04-28T10:08:02;8.30;;;6.30;;
16254;SDS011;8235;52.198;9.904;2023-04-28T10:10:29;10.07;;;6.97;;
16254;SDS011;8235;52.198;9.904;2023-04-28T10:12:58;9.50;;;7.07;;
16254;SDS011;8235;52.198;9.904;2023-04-28T10:15:26;8.70;;;6.57;;
16254;SDS011;8235;52.198;9.904;2023-04-28T10:17:53;8.50;;;6.33;;
16254;SDS011;8235;52.198;9.904;2023-04-28T10:20:20;9.03;;;6.43;;
16254;SDS011;8235;52.198;9.904;2023-04-28T10:22:51;7.57;;;6.33;;
16254;SDS011;8235;52.198;9.904;2023-04-28T10:25:25;9.80;;;6.40;;
16254;SDS011;8235;52.198;9.904;2023-04-28T10:27:52;8.87;;;7.03;;
16254;SDS011;8235;52.198;9.904;2023-04-28T10:30:21;7.80;;;6.73;;
16254;SDS011;8235;52.198;9.904;2023-04-28T10:35:48;10.47;;;8.03;;
16254;SDS011;8235;52.198;9.904;2023-04-28T10:38:15;10.07;;;7.77;;
16254;SDS011;8235;52.198;9.904;2023-04-28T10:40:42;8.60;;;7.67;;
16254;SDS011;8235;52.198;9.904;2023-04-28T10:43:10;11.37;;;7.50;;
16254;SDS011;8235;52.198;9.904;2023-04-28T10:51:30;9.97;;;8.20;;
16254;SDS011;8235;52.198;9.904;2023-04-28T10:54:16;12.50;;;8.27;;
16254;SDS011;8235;52.198;9.904;2023-04-28T10:59:45;12.93;;;8.70;;
16254;SDS011;8235;52.198;9.904;2023-04-28T11:05:09;10.03;;;8.40;;
16254;SDS011;8235;52.198;9.904;2023-04-28T11:07:40;9.20;;;8.30;;
16254;SDS011;8235;52.198;9.904;2023-04-28T11:10:28;11.17;;;8.33;;
16254;SDS011;8235;52.198;9.904;2023-04-28T11:13:32;11.03;;;8.47;;
16254;SDS011;8235;52.198;9.904;2023-04-28T11:16:03;13.80;;;9.33;;
16254;SDS011;8235;52.198;9.904;2023-04-28T11:18:32;11.73;;;8.97;;
16254;SDS011;8235;52.198;9.904;2023-04-28T11:21:13;10.57;;;9.47;;
16254;SDS011;8235;52.198;9.904;2023-04-28T11:23:43;14.27;;;9.33;;
16254;SDS011;8235;52.198;9.904;2023-04-28T11:26:10;10.33;;;8.97;;
16254;SDS011;8235;52.198;9.904;2023-04-28T11:28:45;13.83;;;8.60;;
16254;SDS011;8235;52.198;9.904;2023-04-28T11:31:12;9.33;;;8.43;;
16254;SDS011;8235;52.198;9.904;2023-04-28T11:33:45;11.53;;;8.50;;
16254;SDS011;8235;52.198;9.904;2023-04-28T11:36:27;11.83;;;8.40;;
16254;SDS011;8235;52.198;9.904;2023-04-28T11:38:57;9.43;;;8.03;;
16254;SDS011;8235;52.198;9.904;2023-04-28T11:41:23;11.27;;;8.77;;
16254;SDS011;8235;52.198;9.904;2023-04-28T11:43:51;10.13;;;8.27;;
16254;SDS011;8235;52.198;9.904;2023-04-28T11:46:18;11.43;;;9.03;;
16254;SDS011;8235;52.198;9.904;2023-04-28T11:48:47;9.03;;;8.13;;
16254;SDS011;8235;52.198;9.904;2023-04-28T11:54:03;10.77;;;8.73;;
16254;SDS011;8235;52.198;9.904;2023-04-28T11:56:35;9.93;;;8.80;;
16254;SDS011;8235;52.198;9.904;2023-04-28T11:59:04;10.33;;;8.57;;
16254;SDS011;8235;52.198;9.904;2023-04-28T12:01:33;9.97;;;8.97;;
16254;SDS011;8235;52.198;9.904;2023-04-28T12:04:03;11.97;;;8.63;;
16254;SDS011;8235;52.198;9.904;2023-04-28T12:06:29;10.73;;;9.33;;
16254;SDS011;8235;52.198;9.904;2023-04-28T12:08:56;10.13;;;8.90;;
16254;SDS011;8235;52.198;9.904;2023-04-28T12:11:28;12.00;;;8.70;;
16254;SDS011;8235;52.198;9.904;2023-04-28T12:14:01;10.53;;;8.87;;
16254;SDS011;8235;52.198;9.904;2023-04-28T12:16:36;10.80;;;9.17;;
16254;SDS011;8235;52.198;9.904;2023-04-28T12:19:08;10.93;;;8.73;;
16254;SDS011;8235;52.198;9.904;2023-04-28T12:21:36;10.37;;;8.90;;
16254;SDS011;8235;52.198;9.904;2023-04-28T12:24:14;12.13;;;9.27;;
16254;SDS011;8235;52.198;9.904;2023-04-28T12:26:42;13.80;;;9.27;;
16254;SDS011;8235;52.198;9.904;2023-04-28T12:29:08;13.30;;;9.37;;
16254;SDS011;8235;52.198;9.904;2023-04-28T12:31:47;13.80;;;9.27;;
16254;SDS011;8235;52.198;9.904;2023-04-28T12:34:18;12.17;;;8.83;;
16254;SDS011;8235;52.198;9.904;2023-04-28T12:36:44;10.00;;;8.77;;
16254;SDS011;8235;52.198;9.904;2023-04-28T12:39:14;13.87;;;9.43;;
16254;SDS011;8235;52.198;9.904;2023-04-28T12:41:43;10.80;;;9.20;;
16254;SDS011;8235;52.198;9.904;2023-04-28T12:44:10;10.10;;;8.83;;
16254;SDS011;8235;52.198;9.904;2023-04-28T12:46:37;11.37;;;8.70;;
16254;SDS011;8235;52.198;9.904;2023-04-28T12:49:03;10.70;;;9.40;;
16254;SDS011;8235;52.198;9.904;2023-04-28T12:51:31;9.17;;;8.17;;
16254;SDS011;8235;52.198;9.904;2023-04-28T12:53:59;13.20;;;8.90;;
16254;SDS011;8235;52.198;9.904;2023-04-28T12:56:28;9.97;;;8.67;;
16254;SDS011;8235;52.198;9.904;2023-04-28T12:58:55;10.63;;;8.80;;
16254;SDS011;8235;52.198;9.904;2023-04-28T13:01:22;9.30;;;7.63;;
16254;SDS011;8235;52.198;9.904;2023-04-28T13:03:49;12.33;;;9.10;;
16254;SDS011;8235;52.198;9.904;2023-04-28T13:06:17;13.07;;;8.40;;
16254;SDS011;8235;52.198;9.904;2023-04-28T13:08:45;10.13;;;8.70;;
16254;SDS011;8235;52.198;9.904;2023-04-28T13:11:12;11.90;;;9.13;;
16254;SDS011;8235;52.198;9.904;2023-04-28T13:13:40;8.77;;;7.83;;
16254;SDS011;8235;52.198;9.904;2023-04-28T13:16:08;8.63;;;7.63;;
16254;SDS011;8235;52.198;9.904;2023-04-28T13:18:36;9.73;;;7.57;;
16254;SDS011;8235;52.198;9.904;2023-04-28T13:21:03;7.93;;;7.13;;
16254;SDS011;8235;52.198;9.904;2023-04-28T13:23:30;9.87;;;7.17;;
16254;SDS011;8235;52.198;9.904;2023-04-28T13:25:58;8.03;;;6.70;;
16254;SDS011;8235;52.198;9.904;2023-04-28T13:28:26;8.37;;;7.13;;
16254;SDS011;8235;52.198;9.904;2023-04-28T13:30:53;7.13;;;6.43;;
16254;SDS011;8235;52.198;9.904;2023-04-28T13:33:20;10.97;;;7.10;;
16254;SDS011;8235;52.198;9.904;2023-04-28T13:35:47;8.13;;;6.53;;
16254;SDS011;8235;52.198;9.904;2023-04-28T13:38:15;8.13;;;6.43;;
16254;SDS011;8235;52.198;9.904;2023-04-28T13:40:43;8.50;;;6.33;;
16254;SDS011;8235;52.198;9.904;2023-04-28T13:43:11;8.50;;;7.37;;
16254;SDS011;8235;52.198;9.904;2023-04-28T13:45:37;8.27;;;6.93;;
16254;SDS011;8235;52.198;9.904;2023-04-28T13:48:04;10.37;;;7.80;;
16254;SDS011;8235;52.198;9.904;2023-04-28T13:50:31;9.90;;;7.30;;
16254;SDS011;8235;52.198;9.904;2023-04-28T13:52:58;9.63;;;7.37;;
16254;SDS011;8235;52.198;9.904;2023-04-28T13:55:24;8.63;;;7.43;;
16254;SDS011;8235;52.198;9.904;2023-04-28T13:57:52;10.17;;;8.67;;
16254;SDS011;8235;52.198;9.904;2023-04-28T14:00:20;9.30;;;8.30;;
16254;SDS011;8235;52.198;9.904;2023-04-28T14:02:48;9.73;;;8.37;;
16254;SDS011;8235;52.198;9.904;2023-04-28T14:05:15;11.03;;;8.97;;
16254;SDS011;8235;52.198;9.904;2023-04-28T14:07:42;9.30;;;8.20;;
16254;SDS011;8235;52.198;9.904;2023-04-28T14:10:09;12.80;;;8.57;;
16254;SDS011;8235;52.198;9.904;2023-04-28T14:12:36;9.37;;;8.47;;
16254;SDS011;8235;52.198;9.904;2023-04-28T14:15:03;11.37;;;9.10;;
16254;SDS011;8235;52.198;9.904;2023-04-28T14:17:32;11.37;;;9.23;;
16254;SDS011;8235;52.198;9.904;2023-04-28T14:19:59;12.40;;;9.13;;
16254;SDS011;8235;52.198;9.904;2023-04-28T14:22:26;12.63;;;8.53;;
16254;SDS011;8235;52.198;9.904;2023-04-28T14:24:52;10.13;;;8.73;;
16254;SDS011;8235;52.198;9.904;2023-04-28T14:27:19;12.70;;;8.97;;
16254;SDS011;8235;52.198;9.904;2023-04-28T14:29:47;13.50;;;9.50;;
16254;SDS011;8235;52.198;9.904;2023-04-28T14:32:13;10.73;;;8.83;;
16254;SDS011;8235;52.198;9.904;2023-04-28T14:34:46;13.60;;;9.17;;
16254;SDS011;8235;52.198;9.904;2023-04-28T14:37:13;10.83;;;9.73;;
16254;SDS011;8235;52.198;9.904;2023-04-28T14:39:42;11.80;;;9.80;;
16254;SDS011;8235;52.198;9.904;2023-04-28T14:42:08;16.10;;;9.73;;
16254;SDS011;8235;52.198;9.904;2023-04-28T14:44:36;12.43;;;10.57;;
16254;SDS011;8235;52.198;9.904;2023-04-28T14:47:03;15.23;;;10.97;;
16254;SDS011;8235;52.198;9.904;2023-04-28T14:49:29;14.30;;;10.70;;
16254;SDS011;8235;52.198;9.904;2023-04-28T14:51:58;11.83;;;10.60;;
16254;SDS011;8235;52.198;9.904;2023-04-28T14:54:28;13.93;;;10.73;;
16254;SDS011;8235;52.198;9.904;2023-04-28T14:56:56;15.43;;;9.47;;
16254;SDS011;8235;52.198;9.904;2023-04-28T14:59:22;12.33;;;9.30;;
16254;SDS011;8235;52.198;9.904;2023-04-28T15:01:49;12.30;;;8.80;;
16254;SDS011;8235;52.198;9.904;2023-04-28T15:04:16;12.63;;;9.77;;
16254;SDS011;8235;52.198;9.904;2023-04-28T15:06:42;13.23;;;9.23;;
16254;SDS011;8235;52.198;9.904;2023-04-28T15:09:10;12.67;;;8.87;;
16254;SDS011;8235;52.198;9.904;2023-04-28T15:11:37;11.03;;;9.23;;
16254;SDS011;8235;52.198;9.904;2023-04-28T15:14:04;12.87;;;9.17;;
16254;SDS011;8235;52.198;9.904;2023-04-28T15:16:30;10.07;;;8.90;;
16254;SDS011;8235;52.198;9.904;2023-04-28T15:18:57;10.90;;;8.97;;